sensor_id;sensor_type;location;lat;lon;timestamp;pressure;altitude;pressure_sealevel;temperature;humidity
40948;BME280;49382;-25.924;28.194;2023-03-18T00:02:16;85130.61;;;19.16;40.53
40948;BME280;49382;-25.924;28.194;2023-03-18T00:04:42;85136.68;;;20.62;37.88
40948;BME280;49382;-25.924;28.194;2023-03-18T00:07:08;85133.22;;;18.97;40.66
40948;BME280;49382;-25.924;28.194;2023-03-18T00:09:33;85129.47;;;17.96;42.97
40948;BME280;49382;-25.924;28.194;2023-03-18T00:11:59;85129.22;;;18.87;41.34
40948;BME280;49382;-25.924;28.194;2023-03-18T00:14:25;85126.95;;;19.79;39.31
40948;BME280;49382;-25.924;28.194;2023-03-18T00:16:50;85119.36;;;19.14;40.20
40948;BME280;49382;-25.924;28.194;2023-03-18T00:19:16;85114.47;;;18.45;40.68
40948;BME280;49382;-25.924;28.194;2023-03-18T00:21:41;85111.24;;;19.21;39.66
40948;BME280;49382;-25.924;28.194;2023-03-18T00:24:07;85111.50;;;19.77;39.28
40948;BME280;49382;-25.924;28.194;2023-03-18T00:26:32;85112.83;;;18.69;40.97
40948;BME280;49382;-25.924;28.194;2023-03-18T00:28:59;85112.12;;;18.34;41.93
40948;BME280;49382;-25.924;28.194;2023-03-18T00:31:25;85108.05;;;19.25;40.54
40948;BME280;49382;-25.924;28.194;2023-03-18T00:33:50;85100.97;;;18.35;42.41
40948;BME280;49382;-25.924;28.194;2023-03-18T00:36:16;85096.82;;;18.08;43.33
40948;BME280;49382;-25.924;28.194;2023-03-18T00:38:42;85091.56;;;18.88;40.97
40948;BME280;49382;-25.924;28.194;2023-03-18T00:41:07;85088.62;;;18.89;40.03
40948;BME280;49382;-25.924;28.194;2023-03-18T00:43:32;85085.73;;;18.32;41.79
40948;BME280;49382;-25.924;28.194;2023-03-18T00:45:58;85079.98;;;19.00;40.69
40948;BME280;49382;-25.924;28.194;2023-03-18T00:48:23;85074.21;;;18.65;40.61
40948;BME280;49382;-25.924;28.194;2023-03-18T00:50:48;85066.11;;;18.77;40.49
40948;BME280;49382;-25.924;28.194;2023-03-18T00:53:14;85061.59;;;19.49;39.63
40948;BME280;49382;-25.924;28.194;2023-03-18T00:55:40;85054.77;;;19.32;39.60
40948;BME280;49382;-25.924;28.194;2023-03-18T00:58:05;85050.85;;;19.08;40.54
40948;BME280;49382;-25.924;28.194;2023-03-18T01:00:31;85050.94;;;20.31;39.16
40948;BME280;49382;-25.924;28.194;2023-03-18T01:02:57;85050.55;;;19.11;40.05
40948;BME280;49382;-25.924;28.194;2023-03-18T01:05:22;85044.60;;;18.19;42.36
40948;BME280;49382;-25.924;28.194;2023-03-18T01:07:49;85049.57;;;19.24;40.16
40948;BME280;49382;-25.924;28.194;2023-03-18T01:10:15;85044.72;;;19.81;39.97
40948;BME280;49382;-25.924;28.194;2023-03-18T01:12:40;85039.41;;;19.65;39.58
40948;BME280;49382;-25.924;28.194;2023-03-18T01:15:07;85034.58;;;19.84;39.67
40948;BME280;49382;-25.924;28.194;2023-03-18T01:17:31;85028.03;;;19.61;39.89
40948;BME280;49382;-25.924;28.194;2023-03-18T01:19:58;85025.23;;;19.91;39.60
40948;BME280;49382;-25.924;28.194;2023-03-18T01:22:22;85025.24;;;20.33;38.69
40948;BME280;49382;-25.924;28.194;2023-03-18T01:24:48;85024.38;;;19.20;39.95
40948;BME280;49382;-25.924;28.194;2023-03-18T01:27:14;85023.13;;;17.30;43.96
40948;BME280;49382;-25.924;28.194;2023-03-18T01:29:40;85026.12;;;17.18;44.46
40948;BME280;49382;-25.924;28.194;2023-03-18T01:32:06;85029.13;;;19.00;41.07
40948;BME280;49382;-25.924;28.194;2023-03-18T01:34:31;85028.47;;;17.54;42.86
40948;BME280;49382;-25.924;28.194;2023-03-18T01:36:58;85032.74;;;19.70;39.52
40948;BME280;49382;-25.924;28.194;2023-03-18T01:39:23;85031.73;;;19.09;41.13
40948;BME280;49382;-25.924;28.194;2023-03-18T01:41:49;85028.21;;;18.26;41.94
40948;BME280;49382;-25.924;28.194;2023-03-18T01:44:16;85027.65;;;17.04;44.44
40948;BME280;49382;-25.924;28.194;2023-03-18T01:46:41;85033.72;;;19.12;40.70
40948;BME280;49382;-25.924;28.194;2023-03-18T01:49:09;85036.61;;;18.26;43.02
40948;BME280;49382;-25.924;28.194;2023-03-18T01:51:32;85037.87;;;19.64;39.60
40948;BME280;49382;-25.924;28.194;2023-03-18T01:54:00;85036.26;;;18.80;40.18
40948;BME280;49382;-25.924;28.194;2023-03-18T01:56:23;85039.77;;;19.56;39.68
40948;BME280;49382;-25.924;28.194;2023-03-18T01:58:51;85043.78;;;17.97;42.05
40948;BME280;49382;-25.924;28.194;2023-03-18T02:01:20;85053.40;;;19.22;40.33
40948;BME280;49382;-25.924;28.194;2023-03-18T02:03:41;85058.69;;;19.52;40.67
40948;BME280;49382;-25.924;28.194;2023-03-18T02:06:07;85058.87;;;18.65;41.35
40948;BME280;49382;-25.924;28.194;2023-03-18T02:08:32;85070.94;;;20.60;38.77
40948;BME280;49382;-25.924;28.194;2023-03-18T02:10:58;85076.24;;;19.86;39.99
40948;BME280;49382;-25.924;28.194;2023-03-18T02:13:24;85075.08;;;22.31;36.23
40948;BME280;49382;-25.924;28.194;2023-03-18T02:15:53;85079.19;;;19.64;39.49
40948;BME280;49382;-25.924;28.194;2023-03-18T02:18:18;85077.88;;;19.43;40.39
40948;BME280;49382;-25.924;28.194;2023-03-18T02:20:53;85075.79;;;18.63;41.04
40948;BME280;49382;-25.924;28.194;2023-03-18T02:23:14;85078.22;;;20.93;37.57
40948;BME280;49382;-25.924;28.194;2023-03-18T02:25:40;85075.70;;;17.70;42.63
40948;BME280;49382;-25.924;28.194;2023-03-18T02:28:00;85078.45;;;18.59;41.49
40948;BME280;49382;-25.924;28.194;2023-03-18T02:30:26;85073.83;;;16.75;44.51
40948;BME280;49382;-25.924;28.194;2023-03-18T02:32:51;85073.99;;;17.56;43.51
40948;BME280;49382;-25.924;28.194;2023-03-18T02:35:15;85075.64;;;17.73;43.66
40948;BME280;49382;-25.924;28.194;2023-03-18T02:37:41;85077.36;;;16.65;45.66
40948;BME280;49382;-25.924;28.194;2023-03-18T02:40:12;85073.67;;;18.03;43.47
40948;BME280;49382;-25.924;28.194;2023-03-18T02:42:32;85074.21;;;17.01;44.89
40948;BME280;49382;-25.924;28.194;2023-03-18T02:44:59;85078.91;;;17.99;42.95
40948;BME280;49382;-25.924;28.194;2023-03-18T02:47:26;85080.43;;;15.77;46.22
40948;BME280;49382;-25.924;28.194;2023-03-18T02:49:51;85083.30;;;17.01;45.75
40948;BME280;49382;-25.924;28.194;2023-03-18T02:52:16;85088.95;;;16.19;47.99
40948;BME280;49382;-25.924;28.194;2023-03-18T02:54:42;85088.79;;;17.47;45.77
40948;BME280;49382;-25.924;28.194;2023-03-18T02:57:08;85087.07;;;17.86;43.62
40948;BME280;49382;-25.924;28.194;2023-03-18T02:59:33;85091.14;;;19.43;40.91
40948;BME280;49382;-25.924;28.194;2023-03-18T03:02:00;85090.27;;;17.74;44.84
40948;BME280;49382;-25.924;28.194;2023-03-18T03:04:25;85094.84;;;18.68;42.33
40948;BME280;49382;-25.924;28.194;2023-03-18T03:06:51;85093.83;;;18.31;42.34
40948;BME280;49382;-25.924;28.194;2023-03-18T03:09:17;85094.13;;;19.59;40.06
40948;BME280;49382;-25.924;28.194;2023-03-18T03:11:43;85092.90;;;18.43;41.39
40948;BME280;49382;-25.924;28.194;2023-03-18T03:14:08;85098.49;;;17.84;42.14
40948;BME280;49382;-25.924;28.194;2023-03-18T03:16:34;85101.23;;;16.87;44.04
40948;BME280;49382;-25.924;28.194;2023-03-18T03:18:59;85107.48;;;17.36;44.10
40948;BME280;49382;-25.924;28.194;2023-03-18T03:21:25;85111.37;;;16.84;44.92
40948;BME280;49382;-25.924;28.194;2023-03-18T03:23:51;85112.53;;;16.90;44.44
40948;BME280;49382;-25.924;28.194;2023-03-18T03:26:17;85107.27;;;16.10;46.36
40948;BME280;49382;-25.924;28.194;2023-03-18T03:28:42;85108.04;;;17.40;44.86
40948;BME280;49382;-25.924;28.194;2023-03-18T03:31:08;85110.02;;;17.38;44.29
40948;BME280;49382;-25.924;28.194;2023-03-18T03:33:34;85105.84;;;17.21;44.79
40948;BME280;49382;-25.924;28.194;2023-03-18T03:35:59;85104.87;;;18.17;42.64
40948;BME280;49382;-25.924;28.194;2023-03-18T03:38:25;85114.21;;;20.28;38.93
40948;BME280;49382;-25.924;28.194;2023-03-18T03:40:51;85116.30;;;17.24;43.43
40948;BME280;49382;-25.924;28.194;2023-03-18T03:43:17;85122.44;;;16.26;45.24
40948;BME280;49382;-25.924;28.194;2023-03-18T03:45:43;85127.70;;;17.45;44.00
40948;BME280;49382;-25.924;28.194;2023-03-18T03:48:09;85129.30;;;19.17;40.35
40948;BME280;49382;-25.924;28.194;2023-03-18T03:50:34;85130.72;;;17.26;43.92
40948;BME280;49382;-25.924;28.194;2023-03-18T03:53:00;85138.48;;;19.11;40.86
40948;BME280;49382;-25.924;28.194;2023-03-18T03:55:26;85134.79;;;17.08;44.41
40948;BME280;49382;-25.924;28.194;2023-03-18T03:57:51;85140.07;;;17.08;44.21
40948;BME280;49382;-25.924;28.194;2023-03-18T04:00:20;85142.62;;;17.45;42.72
40948;BME280;49382;-25.924;28.194;2023-03-18T04:02:44;85150.82;;;16.83;45.32
40948;BME280;49382;-25.924;28.194;2023-03-18T04:05:10;85149.91;;;16.32;45.75
40948;BME280;49382;-25.924;28.194;2023-03-18T04:07:34;85154.60;;;16.47;45.88
40948;BME280;49382;-25.924;28.194;2023-03-18T04:10:00;85158.50;;;17.81;43.67
40948;BME280;49382;-25.924;28.194;2023-03-18T04:12:25;85162.17;;;17.22;44.56
40948;BME280;49382;-25.924;28.194;2023-03-18T04:14:51;85171.91;;;18.74;42.23
40948;BME280;49382;-25.924;28.194;2023-03-18T04:17:17;85177.32;;;16.69;44.94
40948;BME280;49382;-25.924;28.194;2023-03-18T04:19:43;85184.29;;;17.14;44.54
40948;BME280;49382;-25.924;28.194;2023-03-18T04:22:09;85191.11;;;18.78;41.93
40948;BME280;49382;-25.924;28.194;2023-03-18T04:24:34;85195.59;;;18.30;42.43
40948;BME280;49382;-25.924;28.194;2023-03-18T04:27:00;85195.89;;;17.68;43.15
40948;BME280;49382;-25.924;28.194;2023-03-18T04:29:26;85195.06;;;18.45;42.57
40948;BME280;49382;-25.924;28.194;2023-03-18T04:31:52;85196.45;;;19.08;40.60
40948;BME280;49382;-25.924;28.194;2023-03-18T04:34:17;85199.18;;;16.89;43.65
40948;BME280;49382;-25.924;28.194;2023-03-18T04:36:43;85206.00;;;15.01;48.26
40948;BME280;49382;-25.924;28.194;2023-03-18T04:39:15;85211.80;;;16.30;47.28
40948;BME280;49382;-25.924;28.194;2023-03-18T04:41:35;85211.36;;;18.56;42.70
40948;BME280;49382;-25.924;28.194;2023-03-18T04:44:01;85217.41;;;19.26;40.94
40948;BME280;49382;-25.924;28.194;2023-03-18T04:46:27;85222.07;;;19.32;41.86
40948;BME280;49382;-25.924;28.194;2023-03-18T04:48:53;85220.38;;;17.97;44.52
40948;BME280;49382;-25.924;28.194;2023-03-18T04:51:18;85217.76;;;16.85;46.04
40948;BME280;49382;-25.924;28.194;2023-03-18T04:53:44;85224.51;;;18.09;44.35
40948;BME280;49382;-25.924;28.194;2023-03-18T04:56:10;85227.17;;;18.02;43.10
40948;BME280;49382;-25.924;28.194;2023-03-18T04:58:36;85229.34;;;17.60;43.73
40948;BME280;49382;-25.924;28.194;2023-03-18T05:01:03;85230.65;;;18.70;43.00
40948;BME280;49382;-25.924;28.194;2023-03-18T05:03:27;85237.56;;;18.04;44.00
40948;BME280;49382;-25.924;28.194;2023-03-18T05:05:53;85243.17;;;17.50;44.80
40948;BME280;49382;-25.924;28.194;2023-03-18T05:08:19;85245.26;;;18.31;43.99
40948;BME280;49382;-25.924;28.194;2023-03-18T05:10:45;85248.23;;;18.17;43.62
40948;BME280;49382;-25.924;28.194;2023-03-18T05:13:11;85246.30;;;18.00;43.45
40948;BME280;49382;-25.924;28.194;2023-03-18T05:15:36;85248.58;;;19.59;41.85
40948;BME280;49382;-25.924;28.194;2023-03-18T05:18:03;85249.68;;;19.83;41.29
40948;BME280;49382;-25.924;28.194;2023-03-18T05:20:28;85256.23;;;19.63;42.38
40948;BME280;49382;-25.924;28.194;2023-03-18T05:22:54;85262.34;;;19.27;41.58
40948;BME280;49382;-25.924;28.194;2023-03-18T05:25:20;85267.54;;;19.02;41.63
40948;BME280;49382;-25.924;28.194;2023-03-18T05:27:46;85272.53;;;19.25;41.92
40948;BME280;49382;-25.924;28.194;2023-03-18T05:30:12;85276.48;;;18.56;42.12
40948;BME280;49382;-25.924;28.194;2023-03-18T05:32:37;85283.04;;;21.46;37.30
40948;BME280;49382;-25.924;28.194;2023-03-18T05:35:03;85286.03;;;19.84;39.47
40948;BME280;49382;-25.924;28.194;2023-03-18T05:37:29;85292.76;;;20.04;39.42
40948;BME280;49382;-25.924;28.194;2023-03-18T05:39:54;85294.86;;;20.46;37.95
40948;BME280;49382;-25.924;28.194;2023-03-18T05:42:21;85297.25;;;19.18;40.40
40948;BME280;49382;-25.924;28.194;2023-03-18T05:44:46;85300.76;;;20.32;40.88
40948;BME280;49382;-25.924;28.194;2023-03-18T05:47:12;85310.20;;;21.56;39.12
40948;BME280;49382;-25.924;28.194;2023-03-18T05:49:37;85311.87;;;19.54;41.76
40948;BME280;49382;-25.924;28.194;2023-03-18T05:52:02;85315.09;;;20.51;40.97
40948;BME280;49382;-25.924;28.194;2023-03-18T05:54:28;85314.25;;;19.83;40.62
40948;BME280;49382;-25.924;28.194;2023-03-18T05:56:54;85319.23;;;20.52;39.11
40948;BME280;49382;-25.924;28.194;2023-03-18T05:59:20;85323.59;;;21.14;40.23
40948;BME280;49382;-25.924;28.194;2023-03-18T06:01:46;85325.97;;;22.30;37.10
40948;BME280;49382;-25.924;28.194;2023-03-18T06:04:11;85328.79;;;21.65;38.97
40948;BME280;49382;-25.924;28.194;2023-03-18T06:06:37;85322.81;;;21.96;40.06
40948;BME280;49382;-25.924;28.194;2023-03-18T06:09:03;85316.99;;;21.57;38.13
40948;BME280;49382;-25.924;28.194;2023-03-18T06:11:28;85311.42;;;22.29;35.50
40948;BME280;49382;-25.924;28.194;2023-03-18T06:13:54;85311.36;;;22.42;36.56
40948;BME280;49382;-25.924;28.194;2023-03-18T06:16:20;85311.94;;;22.78;34.34
40948;BME280;49382;-25.924;28.194;2023-03-18T06:18:46;85310.73;;;24.28;32.96
40948;BME280;49382;-25.924;28.194;2023-03-18T06:21:12;85310.48;;;22.80;31.40
40948;BME280;49382;-25.924;28.194;2023-03-18T06:23:37;85312.60;;;22.69;32.51
40948;BME280;49382;-25.924;28.194;2023-03-18T06:26:03;85311.43;;;22.55;33.73
40948;BME280;49382;-25.924;28.194;2023-03-18T06:28:29;85308.79;;;25.16;31.55
40948;BME280;49382;-25.924;28.194;2023-03-18T06:30:55;85311.66;;;23.53;32.49
40948;BME280;49382;-25.924;28.194;2023-03-18T06:33:20;85316.38;;;24.18;31.85
40948;BME280;49382;-25.924;28.194;2023-03-18T06:35:47;85312.41;;;24.29;32.55
40948;BME280;49382;-25.924;28.194;2023-03-18T06:38:12;85309.41;;;24.07;33.44
40948;BME280;49382;-25.924;28.194;2023-03-18T06:40:38;85316.21;;;24.19;31.63
40948;BME280;49382;-25.924;28.194;2023-03-18T06:43:03;85318.74;;;23.14;33.06
40948;BME280;49382;-25.924;28.194;2023-03-18T06:45:29;85320.25;;;22.95;33.05
40948;BME280;49382;-25.924;28.194;2023-03-18T06:47:55;85314.55;;;24.15;31.93
40948;BME280;49382;-25.924;28.194;2023-03-18T06:50:20;85309.89;;;25.14;31.54
40948;BME280;49382;-25.924;28.194;2023-03-18T06:52:46;85307.41;;;23.53;31.86
40948;BME280;49382;-25.924;28.194;2023-03-18T06:55:12;85305.70;;;23.01;32.46
40948;BME280;49382;-25.924;28.194;2023-03-18T06:57:38;85304.74;;;22.17;33.40
40948;BME280;49382;-25.924;28.194;2023-03-18T07:00:04;85303.95;;;23.63;33.66
40948;BME280;49382;-25.924;28.194;2023-03-18T07:02:29;85304.21;;;25.01;31.23
40948;BME280;49382;-25.924;28.194;2023-03-18T07:04:55;85303.79;;;24.82;31.78
40948;BME280;49382;-25.924;28.194;2023-03-18T07:07:21;85301.03;;;24.96;31.57
40948;BME280;49382;-25.924;28.194;2023-03-18T07:09:47;85296.05;;;24.73;31.39
40948;BME280;49382;-25.924;28.194;2023-03-18T07:12:13;85296.29;;;23.76;31.67
40948;BME280;49382;-25.924;28.194;2023-03-18T07:14:38;85294.89;;;24.09;30.75
40948;BME280;49382;-25.924;28.194;2023-03-18T07:17:04;85296.80;;;23.79;30.82
40948;BME280;49382;-25.924;28.194;2023-03-18T07:19:30;85294.04;;;26.50;28.45
40948;BME280;49382;-25.924;28.194;2023-03-18T07:21:56;85299.58;;;27.10;27.71
40948;BME280;49382;-25.924;28.194;2023-03-18T07:24:21;85299.38;;;27.40;27.68
40948;BME280;49382;-25.924;28.194;2023-03-18T07:26:47;85302.36;;;27.68;27.85
40948;BME280;49382;-25.924;28.194;2023-03-18T07:29:13;85302.93;;;25.57;30.32
40948;BME280;49382;-25.924;28.194;2023-03-18T07:31:39;85315.31;;;27.91;28.54
40948;BME280;49382;-25.924;28.194;2023-03-18T07:34:04;85314.34;;;25.30;29.79
40948;BME280;49382;-25.924;28.194;2023-03-18T07:36:30;85315.61;;;27.03;28.64
40948;BME280;49382;-25.924;28.194;2023-03-18T07:38:56;85310.65;;;26.57;30.06
40948;BME280;49382;-25.924;28.194;2023-03-18T07:41:21;85311.20;;;26.93;29.66
40948;BME280;49382;-25.924;28.194;2023-03-18T07:43:47;85306.27;;;26.53;28.73
40948;BME280;49382;-25.924;28.194;2023-03-18T07:46:13;85309.61;;;27.61;25.58
40948;BME280;49382;-25.924;28.194;2023-03-18T07:48:39;85314.87;;;27.72;29.08
40948;BME280;49382;-25.924;28.194;2023-03-18T07:51:05;85309.46;;;26.34;28.39
40948;BME280;49382;-25.924;28.194;2023-03-18T07:53:30;85308.30;;;26.45;28.35
40948;BME280;49382;-25.924;28.194;2023-03-18T07:55:56;85307.64;;;28.07;27.48
40948;BME280;49382;-25.924;28.194;2023-03-18T07:58:22;85304.07;;;27.68;29.12
40948;BME280;49382;-25.924;28.194;2023-03-18T08:00:47;85301.28;;;26.18;28.47
40948;BME280;49382;-25.924;28.194;2023-03-18T08:03:13;85296.97;;;25.16;29.77
40948;BME280;49382;-25.924;28.194;2023-03-18T08:05:39;85302.95;;;26.89;28.83
40948;BME280;49382;-25.924;28.194;2023-03-18T08:08:05;85300.49;;;26.39;28.42
40948;BME280;49382;-25.924;28.194;2023-03-18T08:10:30;85304.73;;;27.21;28.51
40948;BME280;49382;-25.924;28.194;2023-03-18T08:12:57;85301.80;;;27.42;29.58
40948;BME280;49382;-25.924;28.194;2023-03-18T08:15:22;85301.53;;;28.51;27.79
40948;BME280;49382;-25.924;28.194;2023-03-18T08:17:48;85311.22;;;28.88;28.09
40948;BME280;49382;-25.924;28.194;2023-03-18T08:20:13;85319.77;;;29.32;27.13
40948;BME280;49382;-25.924;28.194;2023-03-18T08:22:39;85328.78;;;29.36;27.57
40948;BME280;49382;-25.924;28.194;2023-03-18T08:25:05;85338.83;;;27.56;30.43
40948;BME280;49382;-25.924;28.194;2023-03-18T08:27:30;85343.48;;;29.33;27.64
40948;BME280;49382;-25.924;28.194;2023-03-18T08:29:56;85349.29;;;29.79;27.72
40948;BME280;49382;-25.924;28.194;2023-03-18T08:32:22;85344.73;;;29.95;26.92
40948;BME280;49382;-25.924;28.194;2023-03-18T08:34:48;85339.29;;;29.55;27.84
40948;BME280;49382;-25.924;28.194;2023-03-18T08:37:13;85334.96;;;27.15;29.79
40948;BME280;49382;-25.924;28.194;2023-03-18T08:39:39;85332.98;;;27.84;28.06
40948;BME280;49382;-25.924;28.194;2023-03-18T08:42:05;85328.45;;;28.22;28.27
40948;BME280;49382;-25.924;28.194;2023-03-18T08:44:30;85326.21;;;27.40;27.24
40948;BME280;49382;-25.924;28.194;2023-03-18T08:46:56;85322.87;;;27.14;28.36
40948;BME280;49382;-25.924;28.194;2023-03-18T08:49:22;85314.60;;;29.21;27.44
40948;BME280;49382;-25.924;28.194;2023-03-18T08:51:48;85311.45;;;27.86;27.56
40948;BME280;49382;-25.924;28.194;2023-03-18T08:54:13;85313.26;;;27.97;29.30
40948;BME280;49382;-25.924;28.194;2023-03-18T08:56:40;85312.36;;;29.02;26.99
40948;BME280;49382;-25.924;28.194;2023-03-18T08:59:05;85309.38;;;29.51;27.81
40948;BME280;49382;-25.924;28.194;2023-03-18T09:01:30;85309.18;;;30.44;26.19
40948;BME280;49382;-25.924;28.194;2023-03-18T09:03:56;85308.85;;;30.44;25.45
40948;BME280;49382;-25.924;28.194;2023-03-18T09:06:22;85307.23;;;27.81;28.28
40948;BME280;49382;-25.924;28.194;2023-03-18T09:08:48;85307.13;;;26.72;29.18
40948;BME280;49382;-25.924;28.194;2023-03-18T09:11:14;85309.23;;;27.46;28.46
40948;BME280;49382;-25.924;28.194;2023-03-18T09:13:39;85310.70;;;29.92;27.79
40948;BME280;49382;-25.924;28.194;2023-03-18T09:16:05;85313.38;;;29.97;27.60
40948;BME280;49382;-25.924;28.194;2023-03-18T09:18:31;85313.34;;;27.48;29.50
40948;BME280;49382;-25.924;28.194;2023-03-18T09:20:56;85310.47;;;27.67;29.56
40948;BME280;49382;-25.924;28.194;2023-03-18T09:23:21;85305.03;;;29.47;27.13
40948;BME280;49382;-25.924;28.194;2023-03-18T09:25:47;85305.93;;;27.65;29.52
40948;BME280;49382;-25.924;28.194;2023-03-18T09:28:13;85306.54;;;28.64;29.03
40948;BME280;49382;-25.924;28.194;2023-03-18T09:30:38;85296.45;;;26.92;28.17
40948;BME280;49382;-25.924;28.194;2023-03-18T09:33:04;85295.59;;;28.20;26.51
40948;BME280;49382;-25.924;28.194;2023-03-18T09:35:29;85291.38;;;27.81;27.69
40948;BME280;49382;-25.924;28.194;2023-03-18T09:37:55;85290.73;;;29.68;28.10
40948;BME280;49382;-25.924;28.194;2023-03-18T09:40:24;85289.31;;;28.73;29.06
40948;BME280;49382;-25.924;28.194;2023-03-18T09:42:52;85285.81;;;30.04;27.55
40948;BME280;49382;-25.924;28.194;2023-03-18T09:45:16;85283.89;;;29.89;26.57
40948;BME280;49382;-25.924;28.194;2023-03-18T09:47:49;85283.40;;;29.51;26.30
40948;BME280;49382;-25.924;28.194;2023-03-18T09:50:13;85280.73;;;28.05;28.78
40948;BME280;49382;-25.924;28.194;2023-03-18T09:52:31;85272.85;;;29.85;27.64
40948;BME280;49382;-25.924;28.194;2023-03-18T09:54:57;85270.04;;;27.68;25.35
40948;BME280;49382;-25.924;28.194;2023-03-18T09:57:22;85270.22;;;28.49;26.95
40948;BME280;49382;-25.924;28.194;2023-03-18T09:59:46;85266.90;;;29.05;27.41
40948;BME280;49382;-25.924;28.194;2023-03-18T10:02:19;85262.67;;;28.25;27.14
40948;BME280;49382;-25.924;28.194;2023-03-18T10:04:39;85252.38;;;28.60;26.21
40948;BME280;49382;-25.924;28.194;2023-03-18T10:07:02;85245.47;;;28.60;27.88
40948;BME280;49382;-25.924;28.194;2023-03-18T10:09:27;85244.87;;;29.15;28.21
40948;BME280;49382;-25.924;28.194;2023-03-18T10:11:51;85238.33;;;27.37;30.05
40948;BME280;49382;-25.924;28.194;2023-03-18T10:14:27;85235.06;;;29.10;28.92
40948;BME280;49382;-25.924;28.194;2023-03-18T10:16:50;85233.46;;;27.66;28.36
40948;BME280;49382;-25.924;28.194;2023-03-18T10:19:07;85230.28;;;29.34;28.20
40948;BME280;49382;-25.924;28.194;2023-03-18T10:21:38;85232.26;;;29.44;26.88
40948;BME280;49382;-25.924;28.194;2023-03-18T10:24:08;85228.15;;;28.82;27.27
40948;BME280;49382;-25.924;28.194;2023-03-18T10:26:29;85218.72;;;29.26;25.61
40948;BME280;49382;-25.924;28.194;2023-03-18T10:31:24;85215.08;;;30.07;25.07
40948;BME280;49382;-25.924;28.194;2023-03-18T10:33:45;85213.79;;;29.13;28.40
40948;BME280;49382;-25.924;28.194;2023-03-18T10:36:09;85211.46;;;29.36;27.36
40948;BME280;49382;-25.924;28.194;2023-03-18T10:38:34;85200.90;;;28.90;26.79
40948;BME280;49382;-25.924;28.194;2023-03-18T10:40:56;85196.70;;;30.02;25.34
40948;BME280;49382;-25.924;28.194;2023-03-18T10:43:25;85194.12;;;29.96;24.24
40948;BME280;49382;-25.924;28.194;2023-03-18T10:45:57;85188.98;;;30.06;24.71
40948;BME280;49382;-25.924;28.194;2023-03-18T10:48:18;85184.88;;;29.61;24.85
40948;BME280;49382;-25.924;28.194;2023-03-18T10:50:42;85178.80;;;30.11;24.59
40948;BME280;49382;-25.924;28.194;2023-03-18T10:53:13;85178.37;;;29.09;25.90
40948;BME280;49382;-25.924;28.194;2023-03-18T10:55:35;85178.10;;;29.93;25.97
40948;BME280;49382;-25.924;28.194;2023-03-18T10:57:56;85177.52;;;30.11;26.27
40948;BME280;49382;-25.924;28.194;2023-03-18T11:00:27;85178.10;;;30.01;25.12
40948;BME280;49382;-25.924;28.194;2023-03-18T11:02:48;85172.34;;;29.61;23.27
40948;BME280;49382;-25.924;28.194;2023-03-18T11:05:22;85166.40;;;28.96;25.26
40948;BME280;49382;-25.924;28.194;2023-03-18T11:10:11;85162.77;;;29.50;23.55
40948;BME280;49382;-25.924;28.194;2023-03-18T11:12:29;85156.04;;;28.80;22.89
40948;BME280;49382;-25.924;28.194;2023-03-18T11:14:55;85147.94;;;27.95;24.36
40948;BME280;49382;-25.924;28.194;2023-03-18T11:17:24;85147.49;;;28.49;24.29
40948;BME280;49382;-25.924;28.194;2023-03-18T11:19:47;85141.97;;;28.75;24.86
40948;BME280;49382;-25.924;28.194;2023-03-18T11:22:18;85138.35;;;29.28;24.06
40948;BME280;49382;-25.924;28.194;2023-03-18T11:24:37;85139.83;;;28.85;24.66
40948;BME280;49382;-25.924;28.194;2023-03-18T11:27:02;85136.83;;;27.62;25.47
40948;BME280;49382;-25.924;28.194;2023-03-18T11:29:31;85132.32;;;28.27;24.03
40948;BME280;49382;-25.924;28.194;2023-03-18T11:31:55;85125.66;;;27.29;23.39
40948;BME280;49382;-25.924;28.194;2023-03-18T11:34:19;85123.05;;;28.27;23.41
40948;BME280;49382;-25.924;28.194;2023-03-18T11:36:52;85124.02;;;28.87;23.83
40948;BME280;49382;-25.924;28.194;2023-03-18T11:39:14;85120.69;;;28.01;25.03
40948;BME280;49382;-25.924;28.194;2023-03-18T11:41:37;85118.83;;;28.73;25.03
40948;BME280;49382;-25.924;28.194;2023-03-18T11:44:03;85119.69;;;29.00;24.98
40948;BME280;49382;-25.924;28.194;2023-03-18T11:46:31;85118.34;;;29.65;24.11
40948;BME280;49382;-25.924;28.194;2023-03-18T11:48:52;85114.92;;;29.14;23.96
40948;BME280;49382;-25.924;28.194;2023-03-18T11:51:27;85113.94;;;29.30;24.74
40948;BME280;49382;-25.924;28.194;2023-03-18T11:53:52;85111.27;;;29.10;24.68
40948;BME280;49382;-25.924;28.194;2023-03-18T11:56:16;85111.82;;;29.93;26.03
40948;BME280;49382;-25.924;28.194;2023-03-18T12:01:06;85109.77;;;28.30;25.77
40948;BME280;49382;-25.924;28.194;2023-03-18T12:06:02;85101.70;;;28.57;24.72
40948;BME280;49382;-25.924;28.194;2023-03-18T12:08:26;85103.64;;;28.45;25.20
40948;BME280;49382;-25.924;28.194;2023-03-18T12:10:48;85104.43;;;29.20;25.01
40948;BME280;49382;-25.924;28.194;2023-03-18T12:13:21;85103.25;;;29.60;25.04
40948;BME280;49382;-25.924;28.194;2023-03-18T12:15:44;85099.88;;;29.21;23.87
40948;BME280;49382;-25.924;28.194;2023-03-18T12:18:07;85099.63;;;29.06;24.70
40948;BME280;49382;-25.924;28.194;2023-03-18T12:20:38;85097.22;;;29.24;24.22
40948;BME280;49382;-25.924;28.194;2023-03-18T12:23:02;85092.29;;;28.76;24.49
40948;BME280;49382;-25.924;28.194;2023-03-18T12:25:28;85091.85;;;29.33;24.31
40948;BME280;49382;-25.924;28.194;2023-03-18T12:27:49;85087.01;;;29.15;24.44
40948;BME280;49382;-25.924;28.194;2023-03-18T12:30:25;85087.90;;;27.85;24.55
40948;BME280;49382;-25.924;28.194;2023-03-18T12:32:39;85088.72;;;29.62;23.88
40948;BME280;49382;-25.924;28.194;2023-03-18T12:35:15;85086.01;;;28.94;25.10
40948;BME280;49382;-25.924;28.194;2023-03-18T12:37:32;85080.85;;;28.95;25.46
40948;BME280;49382;-25.924;28.194;2023-03-18T12:42:28;85073.19;;;29.78;24.47
40948;BME280;49382;-25.924;28.194;2023-03-18T12:44:55;85070.55;;;28.91;25.89